Latest Coastal Weather Observations for Yanakie

IDV60701

Issued at 11:21 am EDT Tuesday 24 October 2017 (issued every 10 minutes, with the page automatically refreshed every 10 minutes)

About coastal observations | Map of coastal stations | Coastal observations for VIC | Marine services | Other Formats
Station Details ID: 085301 Name: YANAKIE Lat: -38.81 Lon: 146.19 Height: 13.3 m
Data from the previous 72 hours. | See also: Recent months at Yanakie
Date/Time
EDT
Temp
°C
Wind Pressure Rain since
9am
mm
Weather Cloud Vis
km
Sea
Height
m
Swell
Dir  Spd
kts
Gust
kts
hPa Trend Height
m
Period
s
Dir
24/11:00am 15.7 W 8 10 1017.4 - 0.0 - - - - - - -
24/10:30am 16.1 W 10 13 1017.6 - 0.0 - - - - - - -
24/10:00am 15.5 W 7 9 1017.4 - 0.0 - - - - - - -
24/09:30am 14.7 WNW 9 11 1017.3 - 0.0 - - - - - - -
24/09:00am 13.7 WNW 7 10 1017.4 - 0.0 - - - - - - -
24/08:30am 13.4 WNW 6 7 1017.3 - 0.0 - - - - - - -
24/08:00am 12.5 NNW 3 4 1016.8 - 0.0 - - - - - - -
24/07:30am 12.1 NW 4 5 1016.8 - 0.0 - - - - - - -
24/07:00am 11.4 NW 5 7 1016.6 - 0.0 - - - - - - -
24/06:30am 11.2 NW 5 7 1016.5 - 0.0 - - - - - - -
24/06:00am 11.2 NW 6 8 1016.6 - 0.0 - - - - - - -
24/05:30am 11.1 NW 6 8 1016.5 - 0.0 - - - - - - -
24/05:00am 11.0 NW 6 8 1016.5 - 0.0 - - - - - - -
24/04:30am 10.9 NW 4 6 1016.4 - 0.0 - - - - - - -
24/04:00am 11.0 NNW 5 6 1016.5 - 0.0 - - - - - - -
24/03:30am 10.7 NW 6 7 1016.5 - 0.0 - - - - - - -
24/03:00am 10.7 NW 4 6 1016.5 - 0.0 - - - - - - -
24/02:30am 10.4 WNW 4 5 1016.7 - 0.0 - - - - - - -
24/02:00am 10.5 WNW 4 5 1016.9 - 0.0 - - - - - - -
24/01:30am 10.6 NW 2 3 1017.2 - 0.0 - - - - - - -
24/01:00am 11.0 NW 3 4 1017.6 - 0.0 - - - - - - -
24/12:30am 11.4 NW 4 6 1017.8 - 0.0 - - - - - - -
24/12:00am 11.6 NNW 4 6 1017.7 - 0.0 - - - - - - -
 
Date/Time
EDT
Temp
°C
Wind Pressure Rain since
9am
mm
Weather Cloud Vis
km
Sea
Height
m
Swell
Dir  Spd
kts
Gust
kts
hPa Trend Height
m
Period
s
Dir
23/11:30pm 11.5 NW 4 6 1017.8 - 0.0 - - - - - - -
23/11:00pm 11.6 NW 4 5 1018.1 - 0.0 - - - - - - -
23/10:30pm 11.3 WNW 4 5 1018.1 - 0.0 - - - - - - -
23/10:00pm 10.6 NW 5 6 1018.1 - 0.0 - - - - - - -
23/09:30pm 10.4 NW 3 4 1018.0 - 0.0 - - - - - - -
23/09:00pm 10.9 NW 4 5 1017.7 - 0.0 - - - - - - -
23/08:30pm 12.2 WNW 6 8 1017.4 - 0.0 - - - - - - -
23/08:00pm 12.8 WSW 8 11 1017.3 - 0.0 - - - - - - -
23/07:30pm 13.0 WSW 11 15 1017.1 - 0.0 - - - - - - -
23/07:00pm 13.5 WSW 9 12 1017.2 - 0.0 - - - - - - -
23/06:30pm 14.3 WSW 11 14 1017.0 - 0.0 - - - - - - -
23/06:00pm 14.5 WSW 11 13 1017.0 - 0.0 - - - - - - -
23/05:30pm 14.5 WSW 13 19 1017.1 - 0.0 - - - - - - -
23/05:00pm 15.3 WSW 13 19 1016.8 - 0.0 - - - - - - -
23/04:30pm 15.7 WSW 13 17 1016.9 - 0.0 - - - - - - -
23/04:00pm 14.9 WSW 14 17 1017.0 - 0.0 - - - - - - -
23/03:30pm 15.2 WSW 14 18 1017.0 - 0.0 - - - - - - -
23/03:00pm 14.8 WSW 11 15 1017.0 - 0.0 - - - - - - -
23/02:30pm 15.7 WSW 12 16 1017.3 - 0.0 - - - - - - -
23/02:00pm 15.5 WSW 13 18 1017.4 - 0.0 - - - - - - -
23/01:30pm 15.6 WSW 14 17 1017.7 - 0.0 - - - - - - -
23/01:00pm 16.2 WSW 13 17 1017.7 - 0.0 - - - - - - -
23/12:30pm 15.6 WSW 12 15 1017.8 - 0.0 - - - - - - -
23/12:00pm 15.6 W 12 16 1018.0 - 0.0 - - - - - - -
23/11:30am 15.6 WSW 9 13 1018.1 - 0.0 - - - - - - -
23/11:00am 14.2 W 11 15 1018.3 - 0.0 - - - - - - -
23/10:30am 14.4 W 9 13 1018.2 - 0.0 - - - - - - -
23/10:00am 14.6 W 11 14 1018.1 - 0.0 - - - - - - -
23/09:30am 13.7 W 11 15 1018.1 - 0.0 - - - - - - -
23/09:00am 13.6 W 10 14 1018.1 - 0.4 - - - - - - -
23/08:30am 12.5 W 10 14 1018.3 - 0.4 - - - - - - -
23/08:00am 12.8 W 11 14 1018.0 - 0.4 - - - - - - -
23/07:30am 12.4 WSW 10 13 1017.9 - 0.4 - - - - - - -
23/07:00am 12.2 W 12 17 1017.7 - 0.4 - - - - - - -
23/06:30am 11.9 WNW 8 11 1017.5 - 0.4 - - - - - - -
23/06:00am 11.9 WSW 11 14 1017.3 - 0.4 - - - - - - -
23/05:30am 11.7 W 11 15 1017.2 - 0.4 - - - - - - -
23/05:00am 11.9 W 11 16 1017.2 - 0.4 - - - - - - -
23/04:30am 11.9 WNW 8 10 1017.1 - 0.4 - - - - - - -
23/04:00am 12.0 W 10 13 1017.1 - 0.4 - - - - - - -
23/03:30am 11.8 WSW 10 14 1017.1 - 0.4 - - - - - - -
23/03:00am 12.1 W 11 15 1017.2 - 0.4 - - - - - - -
23/02:30am 12.0 W 10 13 1017.3 - 0.4 - - - - - - -
23/02:00am 12.0 WSW 10 14 1017.5 - 0.4 - - - - - - -
23/01:30am 11.9 W 11 14 1017.7 - 0.4 - - - - - - -
23/01:00am 12.4 WSW 10 14 1018.0 - 0.4 - - - - - - -
23/12:30am 12.2 WSW 11 14 1017.9 - 0.4 - - - - - - -
23/12:00am 12.3 WSW 11 15 1018.0 - 0.4 - - - - - - -
 
Date/Time
EDT
Temp
°C
Wind Pressure Rain since
9am
mm
Weather Cloud Vis
km
Sea
Height
m
Swell
Dir  Spd
kts
Gust
kts
hPa Trend Height
m
Period
s
Dir
22/11:30pm 12.4 WSW 12 19 1018.0 - 0.4 - - - - - - -
22/11:00pm 12.4 WSW 12 15 1018.0 - 0.4 - - - - - - -
22/10:30pm 12.4 WSW 12 18 1018.0 - 0.4 - - - - - - -
22/10:00pm 12.2 W 11 15 1018.1 - 0.4 - - - - - - -
22/09:30pm 12.4 W 10 14 1018.1 - 0.4 - - - - - - -
22/09:00pm 12.6 WSW 11 15 1017.7 - 0.4 - - - - - - -
22/08:30pm 12.9 WSW 11 16 1017.4 - 0.4 - - - - - - -
22/08:00pm 12.9 W 11 15 1017.2 - 0.4 - - - - - - -
22/07:30pm 12.9 WSW 12 16 1016.9 - 0.4 - - - - - - -
22/07:00pm 13.3 WSW 10 14 1016.8 - 0.4 - - - - - - -
22/06:30pm 13.4 WSW 12 15 1016.6 - 0.4 - - - - - - -
22/06:00pm 13.4 WSW 11 15 1016.5 - 0.4 - - - - - - -
22/05:30pm 13.7 WSW 15 19 1016.4 - 0.4 - - - - - - -
22/05:00pm 14.5 WSW 15 18 1016.3 - 0.4 - - - - - - -
22/04:30pm 14.4 SW 14 18 1016.2 - 0.4 - - - - - - -
22/04:00pm 15.4 WSW 16 21 1016.2 - 0.4 - - - - - - -
22/03:30pm 14.8 WSW 14 18 1016.1 - 0.4 - - - - - - -
22/03:00pm 15.1 WSW 16 21 1016.3 - 0.4 - - - - - - -
22/02:30pm 16.0 WSW 16 20 1016.3 - 0.4 - - - - - - -
22/02:00pm 15.8 SW 17 21 1016.4 - 0.4 - - - - - - -
22/01:30pm 16.2 WSW 15 20 1016.3 - 0.4 - - - - - - -
22/01:00pm 15.1 SW 15 20 1016.4 - 0.4 - - - - - - -
22/12:30pm 15.7 SW 14 19 1016.6 - 0.4 - - - - - - -
22/12:00pm 14.8 SW 16 20 1016.8 - 0.4 - - - - - - -
22/11:30am 14.4 SW 15 21 1017.0 - 0.4 - - - - - - -
22/11:00am 14.9 WSW 15 20 1016.8 - 0.4 - - - - - - -
22/10:30am 13.4 WSW 14 19 1016.9 - 0.4 - - - - - - -
22/10:00am 12.8 WSW 14 21 1016.9 - 0.4 - - - - - - -
22/09:30am 12.9 WSW 13 17 1016.9 - 0.0 - - - - - - -
22/09:00am 12.7 WSW 14 18 1016.6 - 0.2 - - - - - - -
22/08:30am 12.3 W 12 18 1016.7 - 0.2 - - - - - - -
22/08:00am 12.6 WSW 12 15 1016.5 - 0.2 - - - - - - -
22/07:30am 12.4 WSW 11 16 1016.3 - 0.2 - - - - - - -
22/07:00am 12.2 W 12 15 1016.1 - 0.2 - - - - - - -
22/06:30am 12.0 WSW 12 17 1016.1 - 0.2 - - - - - - -
22/06:00am 11.7 WSW 12 16 1016.0 - 0.2 - - - - - - -
22/05:30am 11.8 WSW 14 18 1015.9 - 0.2 - - - - - - -
22/05:00am 11.7 WSW 13 17 1016.0 - 0.2 - - - - - - -
22/04:30am 11.5 WSW 14 19 1016.2 - 0.2 - - - - - - -
22/04:00am 11.9 WSW 13 17 1016.4 - 0.2 - - - - - - -
22/03:30am 11.7 WSW 12 16 1016.7 - 0.2 - - - - - - -
22/03:00am 11.2 W 10 13 1016.8 - 0.2 - - - - - - -
22/02:30am 11.6 WSW 13 18 1017.2 - 0.2 - - - - - - -
22/02:00am 11.2 WSW 11 15 1017.7 - 0.2 - - - - - - -
22/01:30am 11.5 W 10 14 1018.1 - 0.2 - - - - - - -
22/01:00am 11.2 W 10 13 1018.4 - 0.0 - - - - - - -
22/12:30am 11.5 W 11 14 1018.7 - 0.0 - - - - - - -
22/12:00am 11.2 W 13 17 1018.9 - 0.0 - - - - - - -
 
Date/Time
EDT
Temp
°C
Wind Pressure Rain since
9am
mm
Weather Cloud Vis
km
Sea
Height
m
Swell
Dir  Spd
kts
Gust
kts
hPa Trend Height
m
Period
s
Dir
21/11:30pm 11.7 WSW 11 16 1019.2 - 0.0 - - - - - - -
21/11:00pm 11.5 WSW 12 17 1019.5 - 0.0 - - - - - - -
21/10:30pm 11.2 W 9 13 1019.7 - 0.0 - - - - - - -
21/10:00pm 11.3 WSW 10 13 1019.9 - 0.0 - - - - - - -
21/09:30pm 11.6 W 11 16 1020.0 - 0.0 - - - - - - -
21/09:00pm 10.9 W 11 13 1020.1 - 0.0 - - - - - - -
21/08:30pm 11.1 W 11 14 1020.2 - 0.0 - - - - - - -
21/08:00pm 12.0 W 11 16 1020.2 - 0.0 - - - - - - -
21/07:30pm 12.2 W 14 17 1020.3 - 0.0 - - - - - - -
21/07:00pm 12.3 W 11 15 1020.3 - 0.0 - - - - - - -
21/06:30pm 13.1 W 15 21 1020.3 - 0.0 - - - - - - -
21/06:00pm 13.0 W 14 19 1020.3 - 0.0 - - - - - - -
21/05:30pm 13.4 W 16 22 1020.5 - 0.0 - - - - - - -
21/05:00pm 13.1 W 20 26 1020.8 - 0.0 - - - - - - -
21/04:30pm 14.5 WSW 15 21 1021.0 - 0.0 - - - - - - -
21/04:00pm 13.8 WSW 16 21 1021.1 - 0.0 - - - - - - -
21/03:30pm 12.8 WSW 17 22 1021.4 - 0.0 - - - - - - -
21/03:00pm 13.3 WSW 16 20 1021.7 - 0.0 - - - - - - -
21/02:30pm 14.0 WSW 17 23 1022.1 - 0.0 - - - - - - -
21/02:00pm 15.0 WSW 15 20 1022.3 - 0.0 - - - - - - -
21/01:30pm 15.3 WSW 14 21 1022.5 - 0.0 - - - - - - -
21/01:00pm 14.0 SW 15 19 1022.9 - 0.0 - - - - - - -
21/12:30pm 15.1 WSW 15 20 1023.2 - 0.0 - - - - - - -
21/12:00pm 13.0 WSW 12 16 1023.6 - 0.0 - - - - - - -
21/11:30am 14.6 SW 14 20 1023.8 - 0.0 - - - - - - -

Other Formats:

Comma delimited format used in spreadsheet applications
http://www.bom.gov.au/fwo/IDV60701/IDV60701.94911.axf

JavaScript Object Notation format (JSON) in row-major order
http://www.bom.gov.au/fwo/IDV60701/IDV60701.94911.json